Open Door, Argentina
Current Conditions -  °F | °C
As of 4:00 AM on Friday 19 Dec 2014 (Local Time) from SADF Reporting Station
Clear Clear  
Wind Chill: 20°   Ceiling: Unl
Heat Index: 20°   Visibility: 6mi
Dew Point: 15°   Wind: 5mph
Humidity: 73%   Direction: 290°WNW
Pressure: 29.68"   Gusts: NA
Location:  34.5°S, 59.1°W
Report Text: SADF 190700Z 29004KT CAVOK 20/15 Q1005
Loading
Personal Weather Stations






























Interactive Weather Map New forecast layout! Learn more

10-Day Weather Forecast

Advertisements
Track Severe Weather on mobile